sensor_id;sensor_type;location;lat;lon;timestamp;pressure;altitude;pressure_sealevel;temperature;humidity
59650;BME280;46162;57.568;25.814;2022-10-28T00:01:27;101407.38;;;9.95;100.00
59650;BME280;46162;57.568;25.814;2022-10-28T00:03:57;101398.25;;;9.96;100.00
59650;BME280;46162;57.568;25.814;2022-10-28T00:06:29;101395.72;;;9.95;100.00
59650;BME280;46162;57.568;25.814;2022-10-28T00:08:59;101394.88;;;9.94;100.00
59650;BME280;46162;57.568;25.814;2022-10-28T00:11:34;101391.19;;;9.95;100.00
59650;BME280;46162;57.568;25.814;2022-10-28T00:14:04;101391.44;;;9.92;100.00
59650;BME280;46162;57.568;25.814;2022-10-28T00:16:35;101398.69;;;9.92;100.00
59650;BME280;46162;57.568;25.814;2022-10-28T00:19:05;101392.56;;;9.89;100.00
59650;BME280;46162;57.568;25.814;2022-10-28T00:21:36;101396.97;;;9.90;100.00
59650;BME280;46162;57.568;25.814;2022-10-28T00:24:08;101403.47;;;9.88;100.00
59650;BME280;46162;57.568;25.814;2022-10-28T00:26:38;101397.22;;;9.87;100.00
59650;BME280;46162;57.568;25.814;2022-10-28T00:29:10;101398.81;;;9.90;100.00
59650;BME280;46162;57.568;25.814;2022-10-28T00:31:39;101395.25;;;9.89;100.00
59650;BME280;46162;57.568;25.814;2022-10-28T00:34:10;101394.25;;;9.90;100.00
59650;BME280;46162;57.568;25.814;2022-10-28T00:36:40;101394.16;;;9.92;100.00
59650;BME280;46162;57.568;25.814;2022-10-28T00:39:16;101397.69;;;9.93;100.00
59650;BME280;46162;57.568;25.814;2022-10-28T00:41:48;101392.28;;;9.93;100.00
59650;BME280;46162;57.568;25.814;2022-10-28T00:44:55;101393.16;;;9.93;100.00
59650;BME280;46162;57.568;25.814;2022-10-28T00:47:43;101391.44;;;9.92;100.00
59650;BME280;46162;57.568;25.814;2022-10-28T00:50:40;101393.41;;;9.90;100.00
59650;BME280;46162;57.568;25.814;2022-10-28T00:53:14;101391.69;;;9.89;100.00
59650;BME280;46162;57.568;25.814;2022-10-28T00:55:46;101398.94;;;9.88;100.00
59650;BME280;46162;57.568;25.814;2022-10-28T00:58:16;101392.69;;;9.88;100.00
59650;BME280;46162;57.568;25.814;2022-10-28T01:00:46;101392.69;;;9.88;100.00
59650;BME280;46162;57.568;25.814;2022-10-28T01:03:15;101388.28;;;9.87;100.00
59650;BME280;46162;57.568;25.814;2022-10-28T01:05:46;101389.97;;;9.88;100.00
59650;BME280;46162;57.568;25.814;2022-10-28T01:08:15;101388.13;;;9.88;100.00
59650;BME280;46162;57.568;25.814;2022-10-28T01:11:07;101388.97;;;9.89;100.00
59650;BME280;46162;57.568;25.814;2022-10-28T01:13:56;101386.28;;;9.89;100.00
59650;BME280;46162;57.568;25.814;2022-10-28T01:16:32;101380.03;;;9.88;100.00
59650;BME280;46162;57.568;25.814;2022-10-28T01:19:27;101378.94;;;9.91;100.00
59650;BME280;46162;57.568;25.814;2022-10-28T01:22:10;101377.22;;;9.90;100.00
59650;BME280;46162;57.568;25.814;2022-10-28T01:24:54;101371.84;;;9.90;100.00
59650;BME280;46162;57.568;25.814;2022-10-28T01:27:54;101373.69;;;9.89;100.00
59650;BME280;46162;57.568;25.814;2022-10-28T01:30:28;101368.13;;;9.91;100.00
59650;BME280;46162;57.568;25.814;2022-10-28T01:33:07;101369.13;;;9.90;100.00
59650;BME280;46162;57.568;25.814;2022-10-28T01:35:44;101365.59;;;9.89;100.00
59650;BME280;46162;57.568;25.814;2022-10-28T01:38:22;101359.91;;;9.93;100.00
59650;BME280;46162;57.568;25.814;2022-10-28T01:40:58;101355.66;;;9.90;100.00
59650;BME280;46162;57.568;25.814;2022-10-28T01:43:37;101344.88;;;9.90;100.00
59650;BME280;46162;57.568;25.814;2022-10-28T01:46:12;101348.53;;;9.89;100.00
59650;BME280;46162;57.568;25.814;2022-10-28T01:48:46;101342.28;;;9.88;100.00
59650;BME280;46162;57.568;25.814;2022-10-28T01:51:21;101350.25;;;9.90;100.00
59650;BME280;46162;57.568;25.814;2022-10-28T01:53:52;101342.03;;;9.92;100.00
59650;BME280;46162;57.568;25.814;2022-10-28T01:56:26;101336.78;;;9.90;100.00
59650;BME280;46162;57.568;25.814;2022-10-28T01:58:58;101347.56;;;9.90;100.00
59650;BME280;46162;57.568;25.814;2022-10-28T02:01:28;101347.56;;;9.90;100.00
59650;BME280;46162;57.568;25.814;2022-10-28T02:04:00;101340.31;;;9.90;100.00
59650;BME280;46162;57.568;25.814;2022-10-28T02:06:31;101336.66;;;9.92;100.00
59650;BME280;46162;57.568;25.814;2022-10-28T02:09:13;101330.53;;;9.89;100.00
59650;BME280;46162;57.568;25.814;2022-10-28T02:12:15;101336.03;;;9.88;100.00
59650;BME280;46162;57.568;25.814;2022-10-28T02:15:24;101328.22;;;9.85;100.00
59650;BME280;46162;57.568;25.814;2022-10-28T02:18:17;101332.03;;;9.82;100.00
59650;BME280;46162;57.568;25.814;2022-10-28T02:20:52;101334.72;;;9.82;100.00
59650;BME280;46162;57.568;25.814;2022-10-28T02:23:28;101335.84;;;9.80;100.00
59650;BME280;46162;57.568;25.814;2022-10-28T02:26:06;101324.06;;;9.81;100.00
59650;BME280;46162;57.568;25.814;2022-10-28T02:28:41;101314.28;;;9.80;100.00
59650;BME280;46162;57.568;25.814;2022-10-28T02:31:21;101311.13;;;9.75;100.00
59650;BME280;46162;57.568;25.814;2022-10-28T02:33:54;101320.00;;;9.65;100.00
59650;BME280;46162;57.568;25.814;2022-10-28T02:36:29;101320.38;;;9.61;100.00
59650;BME280;46162;57.568;25.814;2022-10-28T02:39:03;101325.88;;;9.59;100.00
59650;BME280;46162;57.568;25.814;2022-10-28T02:41:37;101323.44;;;9.56;100.00
59650;BME280;46162;57.568;25.814;2022-10-28T02:44:09;101322.22;;;9.60;100.00
59650;BME280;46162;57.568;25.814;2022-10-28T02:46:42;101324.91;;;9.60;100.00
59650;BME280;46162;57.568;25.814;2022-10-28T02:49:13;101321.09;;;9.63;100.00
59650;BME280;46162;57.568;25.814;2022-10-28T02:51:45;101316.28;;;9.66;100.00
59650;BME280;46162;57.568;25.814;2022-10-28T02:54:17;101318.88;;;9.68;100.00
59650;BME280;46162;57.568;25.814;2022-10-28T02:56:53;101313.34;;;9.69;100.00
59650;BME280;46162;57.568;25.814;2022-10-28T02:59:23;101316.06;;;9.69;100.00
59650;BME280;46162;57.568;25.814;2022-10-28T03:01:52;101319.72;;;9.68;100.00
59650;BME280;46162;57.568;25.814;2022-10-28T03:04:24;101319.72;;;9.68;100.00
59650;BME280;46162;57.568;25.814;2022-10-28T03:06:55;101309.19;;;9.65;100.00
59650;BME280;46162;57.568;25.814;2022-10-28T03:09:23;101313.88;;;9.63;100.00
59650;BME280;46162;57.568;25.814;2022-10-28T03:11:55;101320.97;;;9.64;100.00
59650;BME280;46162;57.568;25.814;2022-10-28T03:14:24;101320.84;;;9.66;100.00
59650;BME280;46162;57.568;25.814;2022-10-28T03:16:52;101311.91;;;9.65;100.00
59650;BME280;46162;57.568;25.814;2022-10-28T03:19:21;101309.94;;;9.67;100.00
59650;BME280;46162;57.568;25.814;2022-10-28T03:21:51;101305.28;;;9.69;100.00
59650;BME280;46162;57.568;25.814;2022-10-28T03:24:21;101312.34;;;9.71;100.00
59650;BME280;46162;57.568;25.814;2022-10-28T03:26:50;101312.25;;;9.72;100.00
59650;BME280;46162;57.568;25.814;2022-10-28T03:29:18;101314.94;;;9.72;100.00
59650;BME280;46162;57.568;25.814;2022-10-28T03:31:47;101318.34;;;9.74;100.00
59650;BME280;46162;57.568;25.814;2022-10-28T03:34:16;101315.78;;;9.73;100.00
59650;BME280;46162;57.568;25.814;2022-10-28T03:36:45;101311.25;;;9.73;100.00
59650;BME280;46162;57.568;25.814;2022-10-28T03:39:14;101311.13;;;9.75;100.00
59650;BME280;46162;57.568;25.814;2022-10-28T03:41:44;101303.75;;;9.77;100.00
59650;BME280;46162;57.568;25.814;2022-10-28T03:44:13;101310.84;;;9.78;100.00
59650;BME280;46162;57.568;25.814;2022-10-28T03:46:41;101314.53;;;9.77;100.00
59650;BME280;46162;57.568;25.814;2022-10-28T03:49:10;101299.34;;;9.76;100.00
59650;BME280;46162;57.568;25.814;2022-10-28T03:51:39;101300.34;;;9.75;100.00
59650;BME280;46162;57.568;25.814;2022-10-28T03:54:08;101299.44;;;9.74;100.00
59650;BME280;46162;57.568;25.814;2022-10-28T03:56:36;101299.34;;;9.76;100.00
59650;BME280;46162;57.568;25.814;2022-10-28T03:59:09;101292.97;;;9.77;100.00
59650;BME280;46162;57.568;25.814;2022-10-28T04:01:42;101295.66;;;9.77;100.00
59650;BME280;46162;57.568;25.814;2022-10-28T04:04:11;101294.78;;;9.76;100.00
59650;BME280;46162;57.568;25.814;2022-10-28T04:06:40;101291.38;;;9.74;100.00
59650;BME280;46162;57.568;25.814;2022-10-28T04:09:08;101282.31;;;9.75;100.00
59650;BME280;46162;57.568;25.814;2022-10-28T04:11:37;101281.47;;;9.75;100.00
59650;BME280;46162;57.568;25.814;2022-10-28T04:14:06;101285.97;;;9.74;100.00
59650;BME280;46162;57.568;25.814;2022-10-28T04:16:36;101284.88;;;9.77;100.00
59650;BME280;46162;57.568;25.814;2022-10-28T04:19:05;101276.47;;;9.70;100.00
59650;BME280;46162;57.568;25.814;2022-10-28T04:21:33;101280.72;;;9.73;100.00
59650;BME280;46162;57.568;25.814;2022-10-28T04:24:02;101276.31;;;9.72;100.00
59650;BME280;46162;57.568;25.814;2022-10-28T04:26:33;101269.22;;;9.71;100.00
59650;BME280;46162;57.568;25.814;2022-10-28T04:29:02;101268.22;;;9.72;100.00
59650;BME280;46162;57.568;25.814;2022-10-28T04:31:30;101273.59;;;9.72;100.00
59650;BME280;46162;57.568;25.814;2022-10-28T04:34:00;101274.50;;;9.72;100.00
59650;BME280;46162;57.568;25.814;2022-10-28T04:36:29;101273.50;;;9.73;100.00
59650;BME280;46162;57.568;25.814;2022-10-28T04:38:58;101267.25;;;9.73;100.00
59650;BME280;46162;57.568;25.814;2022-10-28T04:41:27;101266.13;;;9.75;100.00
59650;BME280;46162;57.568;25.814;2022-10-28T04:43:55;101261.59;;;9.76;100.00
59650;BME280;46162;57.568;25.814;2022-10-28T04:46:24;101256.19;;;9.76;100.00
59650;BME280;46162;57.568;25.814;2022-10-28T04:48:53;101263.31;;;9.77;100.00
59650;BME280;46162;57.568;25.814;2022-10-28T04:51:24;101251.91;;;9.73;100.00
59650;BME280;46162;57.568;25.814;2022-10-28T04:53:52;101249.94;;;9.75;100.00
59650;BME280;46162;57.568;25.814;2022-10-28T04:56:21;101242.59;;;9.77;100.00
59650;BME280;46162;57.568;25.814;2022-10-28T04:58:50;101236.19;;;9.78;100.00
59650;BME280;46162;57.568;25.814;2022-10-28T05:01:18;101248.72;;;9.79;100.00
59650;BME280;46162;57.568;25.814;2022-10-28T05:03:47;101241.47;;;9.80;100.00
59650;BME280;46162;57.568;25.814;2022-10-28T05:06:16;101247.59;;;9.82;100.00
59650;BME280;46162;57.568;25.814;2022-10-28T05:08:46;101247.72;;;9.80;100.00
59650;BME280;46162;57.568;25.814;2022-10-28T05:11:14;101252.25;;;9.80;100.00
59650;BME280;46162;57.568;25.814;2022-10-28T05:13:43;101253.09;;;9.80;100.00
59650;BME280;46162;57.568;25.814;2022-10-28T05:16:12;101256.53;;;9.82;100.00
59650;BME280;46162;57.568;25.814;2022-10-28T05:18:41;101250.41;;;9.80;100.00
59650;BME280;46162;57.568;25.814;2022-10-28T05:21:10;101245.84;;;9.81;100.00
59650;BME280;46162;57.568;25.814;2022-10-28T05:23:39;101246.47;;;9.84;100.00
59650;BME280;46162;57.568;25.814;2022-10-28T05:26:09;101257.38;;;9.83;100.00
59650;BME280;46162;57.568;25.814;2022-10-28T05:28:38;101259.94;;;9.84;100.00
59650;BME280;46162;57.568;25.814;2022-10-28T05:31:07;101257.38;;;9.83;100.00
59650;BME280;46162;57.568;25.814;2022-10-28T05:33:36;101259.06;;;9.84;100.00
59650;BME280;46162;57.568;25.814;2022-10-28T05:36:05;101255.53;;;9.83;100.00
59650;BME280;46162;57.568;25.814;2022-10-28T05:38:34;101255.53;;;9.83;100.00
59650;BME280;46162;57.568;25.814;2022-10-28T05:41:03;101259.94;;;9.84;100.00
59650;BME280;46162;57.568;25.814;2022-10-28T05:43:33;101261.53;;;9.87;100.00
59650;BME280;46162;57.568;25.814;2022-10-28T05:46:02;101264.22;;;9.87;100.00
59650;BME280;46162;57.568;25.814;2022-10-28T05:48:31;101267.59;;;9.89;100.00
59650;BME280;46162;57.568;25.814;2022-10-28T05:51:00;101268.34;;;9.91;100.00
59650;BME280;46162;57.568;25.814;2022-10-28T05:53:28;101261.13;;;9.92;100.00
59650;BME280;46162;57.568;25.814;2022-10-28T05:55:57;101260.25;;;9.91;100.00
59650;BME280;46162;57.568;25.814;2022-10-28T05:58:26;101254.72;;;9.93;100.00
59650;BME280;46162;57.568;25.814;2022-10-28T06:00:56;101265.41;;;9.94;100.00
59650;BME280;46162;57.568;25.814;2022-10-28T06:03:25;101263.66;;;9.93;100.00
59650;BME280;46162;57.568;25.814;2022-10-28T06:05:57;101256.31;;;9.95;100.00
59650;BME280;46162;57.568;25.814;2022-10-28T06:08:26;101258.88;;;9.97;100.00
59650;BME280;46162;57.568;25.814;2022-10-28T06:10:57;101260.56;;;9.98;100.00
59650;BME280;46162;57.568;25.814;2022-10-28T06:13:25;101255.91;;;10.00;100.00
59650;BME280;46162;57.568;25.814;2022-10-28T06:15:56;101258.44;;;10.01;100.00
59650;BME280;46162;57.568;25.814;2022-10-28T06:18:26;101256.47;;;10.03;100.00
59650;BME280;46162;57.568;25.814;2022-10-28T06:20:56;101257.47;;;10.02;100.00
59650;BME280;46162;57.568;25.814;2022-10-28T06:23:26;101256.47;;;10.03;100.00
59650;BME280;46162;57.568;25.814;2022-10-28T06:25:56;101252.81;;;10.04;100.00
59650;BME280;46162;57.568;25.814;2022-10-28T06:28:30;101255.22;;;10.07;100.00
59650;BME280;46162;57.568;25.814;2022-10-28T06:31:05;101252.66;;;10.06;100.00
59650;BME280;46162;57.568;25.814;2022-10-28T06:33:34;101248.13;;;10.06;100.00
59650;BME280;46162;57.568;25.814;2022-10-28T06:36:04;101252.53;;;10.07;100.00
59650;BME280;46162;57.568;25.814;2022-10-28T06:38:32;101245.88;;;10.11;100.00
59650;BME280;46162;57.568;25.814;2022-10-28T06:41:01;101252.97;;;10.12;100.00
59650;BME280;46162;57.568;25.814;2022-10-28T06:43:30;101252.59;;;10.17;100.00
59650;BME280;46162;57.568;25.814;2022-10-28T06:46:01;101252.69;;;10.16;100.00
59650;BME280;46162;57.568;25.814;2022-10-28T06:48:31;101241.63;;;10.19;100.00
59650;BME280;46162;57.568;25.814;2022-10-28T06:51:00;101243.94;;;10.23;100.00
59650;BME280;46162;57.568;25.814;2022-10-28T06:53:29;101244.66;;;10.25;100.00
59650;BME280;46162;57.568;25.814;2022-10-28T06:55:57;101251.66;;;10.28;100.00
59650;BME280;46162;57.568;25.814;2022-10-28T06:58:26;101246.25;;;10.28;100.00
59650;BME280;46162;57.568;25.814;2022-10-28T07:00:55;101245.84;;;10.32;100.00
59650;BME280;46162;57.568;25.814;2022-10-28T07:03:23;101254.78;;;10.33;100.00
59650;BME280;46162;57.568;25.814;2022-10-28T07:05:54;101255.38;;;10.37;100.00
59650;BME280;46162;57.568;25.814;2022-10-28T07:08:23;101254.38;;;10.38;100.00
59650;BME280;46162;57.568;25.814;2022-10-28T07:10:55;101264.78;;;10.42;100.00
59650;BME280;46162;57.568;25.814;2022-10-28T07:13:25;101262.53;;;10.47;100.00
59650;BME280;46162;57.568;25.814;2022-10-28T07:15:55;101266.06;;;10.48;100.00
59650;BME280;46162;57.568;25.814;2022-10-28T07:18:26;101272.06;;;10.51;100.00
59650;BME280;46162;57.568;25.814;2022-10-28T07:20:58;101271.06;;;10.52;100.00
59650;BME280;46162;57.568;25.814;2022-10-28T07:23:27;101273.63;;;10.54;100.00
59650;BME280;46162;57.568;25.814;2022-10-28T07:25:57;101274.47;;;10.54;100.00
59650;BME280;46162;57.568;25.814;2022-10-28T07:28:27;101270.78;;;10.55;100.00
59650;BME280;46162;57.568;25.814;2022-10-28T07:30:59;101277.63;;;10.60;100.00
59650;BME280;46162;57.568;25.814;2022-10-28T07:33:29;101268.69;;;10.59;100.00
59650;BME280;46162;57.568;25.814;2022-10-28T07:36:01;101281.88;;;10.62;100.00
59650;BME280;46162;57.568;25.814;2022-10-28T07:38:30;101285.44;;;10.63;100.00
59650;BME280;46162;57.568;25.814;2022-10-28T07:41:04;101280.63;;;10.66;100.00
59650;BME280;46162;57.568;25.814;2022-10-28T07:43:35;101292.41;;;10.65;100.00
59650;BME280;46162;57.568;25.814;2022-10-28T07:46:04;101283.63;;;10.63;100.00
59650;BME280;46162;57.568;25.814;2022-10-28T07:48:34;101281.03;;;10.62;100.00
59650;BME280;46162;57.568;25.814;2022-10-28T07:51:06;101274.50;;;10.64;100.00
59650;BME280;46162;57.568;25.814;2022-10-28T07:53:35;101272.94;;;10.62;100.00
59650;BME280;46162;57.568;25.814;2022-10-28T07:56:05;101280.91;;;10.63;100.00
59650;BME280;46162;57.568;25.814;2022-10-28T07:58:36;101275.78;;;10.70;100.00
59650;BME280;46162;57.568;25.814;2022-10-28T08:01:07;101275.50;;;10.73;100.00
59650;BME280;46162;57.568;25.814;2022-10-28T08:03:36;101276.97;;;10.77;100.00
59650;BME280;46162;57.568;25.814;2022-10-28T08:06:08;101277.09;;;10.75;100.00
59650;BME280;46162;57.568;25.814;2022-10-28T08:08:37;101280.78;;;10.74;100.00
59650;BME280;46162;57.568;25.814;2022-10-28T08:11:10;101287.31;;;10.72;100.00
59650;BME280;46162;57.568;25.814;2022-10-28T08:13:39;101278.38;;;10.71;100.00
59650;BME280;46162;57.568;25.814;2022-10-28T08:16:08;101282.19;;;10.69;100.00
59650;BME280;46162;57.568;25.814;2022-10-28T08:18:38;101278.78;;;10.67;100.00
59650;BME280;46162;57.568;25.814;2022-10-28T08:21:09;101281.59;;;10.65;100.00
59650;BME280;46162;57.568;25.814;2022-10-28T08:23:38;101280.75;;;10.65;100.00
59650;BME280;46162;57.568;25.814;2022-10-28T08:26:07;101277.94;;;10.66;100.00
59650;BME280;46162;57.568;25.814;2022-10-28T08:28:36;101277.22;;;10.64;100.00
59650;BME280;46162;57.568;25.814;2022-10-28T08:31:05;101280.47;;;10.68;100.00
59650;BME280;46162;57.568;25.814;2022-10-28T08:33:37;101275.34;;;10.65;100.00
59650;BME280;46162;57.568;25.814;2022-10-28T08:36:09;101277.22;;;10.64;100.00
59650;BME280;46162;57.568;25.814;2022-10-28T08:38:39;101279.78;;;10.66;100.00
59650;BME280;46162;57.568;25.814;2022-10-28T08:41:26;101272.38;;;10.68;100.00
59650;BME280;46162;57.568;25.814;2022-10-28T08:47:00;101270.28;;;10.81;100.00
59650;BME280;46162;57.568;25.814;2022-10-28T08:49:36;101269.72;;;10.87;100.00
59650;BME280;46162;57.568;25.814;2022-10-28T08:52:19;101263.78;;;10.93;100.00
59650;BME280;46162;57.568;25.814;2022-10-28T08:54:55;101264.63;;;10.94;100.00
59650;BME280;46162;57.568;25.814;2022-10-28T08:57:35;101261.19;;;10.92;100.00
59650;BME280;46162;57.568;25.814;2022-10-28T09:00:07;101264.03;;;10.90;100.00
59650;BME280;46162;57.568;25.814;2022-10-28T09:02:46;101260.63;;;10.88;100.00
59650;BME280;46162;57.568;25.814;2022-10-28T09:05:20;101266.03;;;10.88;100.00
59650;BME280;46162;57.568;25.814;2022-10-28T09:07:51;101271.28;;;10.90;100.00
59650;BME280;46162;57.568;25.814;2022-10-28T09:10:33;101261.78;;;10.86;100.00
59650;BME280;46162;57.568;25.814;2022-10-28T09:13:06;101262.63;;;10.86;100.00
59650;BME280;46162;57.568;25.814;2022-10-28T09:15:43;101259.19;;;10.84;100.00
59650;BME280;46162;57.568;25.814;2022-10-28T09:18:17;101264.72;;;10.83;100.00
59650;BME280;46162;57.568;25.814;2022-10-28T09:20:51;101254.22;;;10.80;100.00
59650;BME280;46162;57.568;25.814;2022-10-28T09:23:25;101257.91;;;10.79;100.00
59650;BME280;46162;57.568;25.814;2022-10-28T09:26:06;101260.75;;;10.77;100.00
59650;BME280;46162;57.568;25.814;2022-10-28T09:28:47;101261.88;;;10.74;100.00
59650;BME280;46162;57.568;25.814;2022-10-28T09:31:21;101261.31;;;10.71;100.00
59650;BME280;46162;57.568;25.814;2022-10-28T09:34:05;101261.56;;;10.68;100.00
59650;BME280;46162;57.568;25.814;2022-10-28T09:36:39;101261.00;;;10.64;100.00
59650;BME280;46162;57.568;25.814;2022-10-28T09:39:16;101260.28;;;10.62;100.00
59650;BME280;46162;57.568;25.814;2022-10-28T09:41:54;101263.28;;;10.59;100.00
59650;BME280;46162;57.568;25.814;2022-10-28T09:44:25;101263.56;;;10.56;100.00
59650;BME280;46162;57.568;25.814;2022-10-28T09:46:56;101262.84;;;10.54;100.00
59650;BME280;46162;57.568;25.814;2022-10-28T09:49:27;101265.66;;;10.52;100.00
59650;BME280;46162;57.568;25.814;2022-10-28T09:52:04;101262.97;;;10.52;100.00
59650;BME280;46162;57.568;25.814;2022-10-28T09:54:47;101257.44;;;10.54;100.00
59650;BME280;46162;57.568;25.814;2022-10-28T09:57:16;101255.59;;;10.54;100.00
59650;BME280;46162;57.568;25.814;2022-10-28T09:59:46;101248.50;;;10.53;100.00
59650;BME280;46162;57.568;25.814;2022-10-28T10:02:25;101248.50;;;10.53;100.00
59650;BME280;46162;57.568;25.814;2022-10-28T10:04:55;101242.94;;;10.55;100.00
59650;BME280;46162;57.568;25.814;2022-10-28T10:07:29;101239.94;;;10.58;100.00
59650;BME280;46162;57.568;25.814;2022-10-28T10:10:04;101240.81;;;10.59;100.00
59650;BME280;46162;57.568;25.814;2022-10-28T10:12:34;101239.94;;;10.58;100.00
59650;BME280;46162;57.568;25.814;2022-10-28T10:15:04;101236.28;;;10.59;100.00
59650;BME280;46162;57.568;25.814;2022-10-28T10:17:39;101230.72;;;10.61;100.00
59650;BME280;46162;57.568;25.814;2022-10-28T10:20:10;101223.63;;;10.60;100.00
59650;BME280;46162;57.568;25.814;2022-10-28T10:22:41;101227.03;;;10.62;100.00
59650;BME280;46162;57.568;25.814;2022-10-28T10:25:24;101222.47;;;10.62;100.00
59650;BME280;46162;57.568;25.814;2022-10-28T10:27:58;101218.94;;;10.62;100.00
59650;BME280;46162;57.568;25.814;2022-10-28T10:30:32;101220.91;;;10.60;100.00
59650;BME280;46162;57.568;25.814;2022-10-28T10:33:02;101219.06;;;10.60;100.00
59650;BME280;46162;57.568;25.814;2022-10-28T10:35:34;101218.22;;;10.60;100.00
59650;BME280;46162;57.568;25.814;2022-10-28T10:38:04;101213.66;;;10.60;100.00
59650;BME280;46162;57.568;25.814;2022-10-28T10:40:38;101216.38;;;10.60;100.00
59650;BME280;46162;57.568;25.814;2022-10-28T10:43:20;101216.53;;;10.59;100.00
59650;BME280;46162;57.568;25.814;2022-10-28T10:45:52;101207.41;;;10.60;100.00
59650;BME280;46162;57.568;25.814;2022-10-28T10:48:21;101207.41;;;10.60;100.00
59650;BME280;46162;57.568;25.814;2022-10-28T10:50:50;101208.41;;;10.59;100.00
59650;BME280;46162;57.568;25.814;2022-10-28T10:53:22;101206.69;;;10.58;100.00
59650;BME280;46162;57.568;25.814;2022-10-28T10:55:57;101213.81;;;10.59;100.00
59650;BME280;46162;57.568;25.814;2022-10-28T10:58:30;101208.41;;;10.59;100.00
59650;BME280;46162;57.568;25.814;2022-10-28T11:01:01;101203.72;;;10.61;100.00
59650;BME280;46162;57.568;25.814;2022-10-28T11:03:30;101209.13;;;10.61;100.00
59650;BME280;46162;57.568;25.814;2022-10-28T11:06:05;101204.44;;;10.63;100.00
59650;BME280;46162;57.568;25.814;2022-10-28T11:08:54;101198.06;;;10.64;100.00
59650;BME280;46162;57.568;25.814;2022-10-28T11:11:33;101191.81;;;10.63;100.00
59650;BME280;46162;57.568;25.814;2022-10-28T11:14:04;101195.19;;;10.65;100.00
59650;BME280;46162;57.568;25.814;2022-10-28T11:16:46;101192.66;;;10.64;100.00
59650;BME280;46162;57.568;25.814;2022-10-28T11:19:20;101196.31;;;10.63;100.00
59650;BME280;46162;57.568;25.814;2022-10-28T11:22:00;101195.63;;;10.61;100.00
59650;BME280;46162;57.568;25.814;2022-10-28T11:28:05;101192.22;;;10.59;100.00
59650;BME280;46162;57.568;25.814;2022-10-28T11:30:48;101180.53;;;10.58;100.00
59650;BME280;46162;57.568;25.814;2022-10-28T11:33:22;101183.25;;;10.58;100.00
59650;BME280;46162;57.568;25.814;2022-10-28T11:36:04;101176.16;;;10.57;100.00
59650;BME280;46162;57.568;25.814;2022-10-28T11:38:56;101185.09;;;10.58;100.00
59650;BME280;46162;57.568;25.814;2022-10-28T11:41:36;101178.72;;;10.59;100.00
59650;BME280;46162;57.568;25.814;2022-10-28T11:44:21;101182.41;;;10.58;100.00
59650;BME280;46162;57.568;25.814;2022-10-28T11:47:02;101178.84;;;10.57;100.00
59650;BME280;46162;57.568;25.814;2022-10-28T11:55:44;101177.31;;;10.64;100.00
59650;BME280;46162;57.568;25.814;2022-10-28T11:58:18;101179.88;;;10.66;100.00
59650;BME280;46162;57.568;25.814;2022-10-28T12:01:00;101176.44;;;10.64;100.00
59650;BME280;46162;57.568;25.814;2022-10-28T12:04:08;101174.59;;;10.64;100.00
59650;BME280;46162;57.568;25.814;2022-10-28T12:06:56;101176.44;;;10.64;100.00
59650;BME280;46162;57.568;25.814;2022-10-28T12:09:35;101173.88;;;10.62;100.00
59650;BME280;46162;57.568;25.814;2022-10-28T12:12:15;101169.31;;;10.63;100.00
59650;BME280;46162;57.568;25.814;2022-10-28T12:14:52;101167.63;;;10.62;100.00
59650;BME280;46162;57.568;25.814;2022-10-28T12:17:29;101160.50;;;10.61;100.00
59650;BME280;46162;57.568;25.814;2022-10-28T12:20:07;101158.69;;;10.61;100.00
59650;BME280;46162;57.568;25.814;2022-10-28T12:22:45;101154.25;;;10.60;100.00
59650;BME280;46162;57.568;25.814;2022-10-28T12:25:18;101151.72;;;10.59;100.00
59650;BME280;46162;57.568;25.814;2022-10-28T12:27:52;101149.03;;;10.59;100.00
59650;BME280;46162;57.568;25.814;2022-10-28T12:30:24;101152.41;;;10.61;100.00
59650;BME280;46162;57.568;25.814;2022-10-28T12:32:58;101151.56;;;10.60;100.00
59650;BME280;46162;57.568;25.814;2022-10-28T12:35:31;101150.16;;;10.56;100.00
59650;BME280;46162;57.568;25.814;2022-10-28T12:38:07;101147.16;;;10.59;100.00
59650;BME280;46162;57.568;25.814;2022-10-28T12:40:42;101140.22;;;10.57;100.00
59650;BME280;46162;57.568;25.814;2022-10-28T12:43:17;101136.66;;;10.56;100.00
59650;BME280;46162;57.568;25.814;2022-10-28T12:45:51;101136.50;;;10.58;100.00
59650;BME280;46162;57.568;25.814;2022-10-28T12:48:29;101135.53;;;10.59;100.00
59650;BME280;46162;57.568;25.814;2022-10-28T12:51:03;101155.41;;;10.58;100.00
59650;BME280;46162;57.568;25.814;2022-10-28T12:53:37;101147.47;;;10.56;100.00
59650;BME280;46162;57.568;25.814;2022-10-28T12:56:10;101141.06;;;10.57;100.00
59650;BME280;46162;57.568;25.814;2022-10-28T12:58:49;101144.03;;;10.54;100.00
59650;BME280;46162;57.568;25.814;2022-10-28T13:01:22;101136.22;;;10.51;100.00
59650;BME280;46162;57.568;25.814;2022-10-28T13:03:53;101138.06;;;10.50;100.00
59650;BME280;46162;57.568;25.814;2022-10-28T13:06:38;101134.50;;;10.50;100.00
59650;BME280;46162;57.568;25.814;2022-10-28T13:09:25;101136.34;;;10.49;100.00
59650;BME280;46162;57.568;25.814;2022-10-28T13:12:43;101136.34;;;10.49;100.00
59650;BME280;46162;57.568;25.814;2022-10-28T13:21:24;101136.78;;;10.45;100.00
59650;BME280;46162;57.568;25.814;2022-10-28T13:24:00;101138.63;;;10.44;100.00
59650;BME280;46162;57.568;25.814;2022-10-28T13:26:31;101140.47;;;10.44;100.00